메인 페이지
METAR-TAF:

METAR-TAF

공항 :

아비장, 코트디부아르

위도: 05-15N, 경도: 003-56W, 고도: 7m

현재 날씨관측

예보는 15분 전, 09:30시(UTC)에 발표되었습니다.
서남서7kt
온도 29°C
습도 79%
기압 1012 hPa
시정: 7000m
고도 1200ft 상공 구름 조금

METAR: DIAP 180930Z 24007KT 7000 FEW012 29/25 Q1012 NOSIG

시각: 09:45 (09:45 UTC)

예보

예보는 4 시간 45분 전, 05:00시(UTC)에 발표되었습니다.
예보 대상 시간: 18일 06시부터 19일 12시까지 (UTC)
서남서3kt
시정: 7000m
확률 30%
18일 06시부터 18일 08시까지 (UTC)
시정: 2000m
박무
확률 30% :
일시적
18일 08시부터 18일 14시까지 (UTC)
시정: 4000m
연무
확률 30% :
일시적
18일 14시부터 18일 20시까지 (UTC)
고도 1200ft 상공 구름 많음

TAF: DIAP 180500Z 1806/1912 24003KT 7000 NSC PROB30 1806/1808 2000 BR NSC PROB30 TEMPO 1808/1814 4000 HZ NSC PROB30 TEMPO 1814/1820 BKN012

4,000개 이상의 공항 관측 자료 및 예보 (METAR 및 TAF 보고).

지도상에서 검색 가능한 기상관측소가 노란 점과 빨간 점으로 표시되어 있습니다.

기상관측소 명을 보려면 표시 위로 마우스를 이동하세요.

날씨 관측과 예보를 보려면 클릭하세요.

지도 변경 : 확대하려면 엑스 표시가 있는 녹색 버튼, 축소하려면 빼기 표시가 있는 녹색 버튼, 다음 페이지의 지도를 보려면 녹색 화살표를 클릭하세요.


METAR-TAF: